Archival Weather

Chicago O'Hare International

Chicago, Illinois (KORD)

Report from: Saturday, May 20, 2023 3:51 PM CDT
Current time: Tuesday, February 27, 2024 3:47 AM CST

Current weather – Weather history – Daily summaries
Weather forecast

Temperature20.6°C (69.1°F)
Dew point3.9°C (39.0°F)
Winds 3 kts (1.5 m/s, 3.5 mph) Vrb
Winds variableWinds variable
Visibility10 mi. (16.1 km)
Clouds Few clouds 5,000 ft. (1,524 m)
Altimeter30.13 in.Hg (1020 mB)
Relative humidity33 %
Density altitude539 ft. (164 m)
Sea-level pressure102.0 kPa (1020 mB, 30.13 in.Hg)
Remarks Automated weather observing station with precipitation discriminator
Pressure falling more quickly
Flight conditions Visual Meteorological Conditions
Raw dataKORD 202051Z VRB03KT 10SM FEW050 21/04 A3013 RMK AO2 SLP203 T02060039 58006
An error has occurred. This application may no longer respond until reloaded. Reload 🗙